createdAt,value
2023-05-20T00:01:28.028Z,9.90
2023-05-20T00:03:30.797Z,9.68
2023-05-20T00:05:33.500Z,10.18
2023-05-20T00:07:36.067Z,10.93
2023-05-20T00:09:40.837Z,9.98
2023-05-20T00:11:43.482Z,9.65
2023-05-20T00:13:48.306Z,10.18
2023-05-20T00:15:50.861Z,10.50
2023-05-20T00:17:53.521Z,9.52
2023-05-20T00:19:56.258Z,10.00
2023-05-20T00:21:59.038Z,11.65
2023-05-20T00:24:01.688Z,10.57
2023-05-20T00:26:05.791Z,10.68
2023-05-20T00:28:08.380Z,10.63
2023-05-20T00:30:12.058Z,10.90
2023-05-20T00:32:14.974Z,10.93
2023-05-20T00:34:17.590Z,11.10
2023-05-20T00:36:20.665Z,10.80
2023-05-20T00:38:23.353Z,11.50
2023-05-20T00:40:26.016Z,11.00
2023-05-20T00:42:30.308Z,12.25
2023-05-20T00:44:33.366Z,11.27
2023-05-20T00:46:36.857Z,11.65
2023-05-20T00:48:43.405Z,10.90
2023-05-20T00:50:46.082Z,10.20
2023-05-20T00:52:51.669Z,11.35
2023-05-20T00:54:54.257Z,11.27
2023-05-20T00:56:57.795Z,11.85
2023-05-20T00:59:01.872Z,11.27
2023-05-20T01:01:04.644Z,11.00
2023-05-20T01:03:07.441Z,10.88
2023-05-20T01:05:10.500Z,11.50
2023-05-20T01:07:14.767Z,11.20
2023-05-20T01:09:17.410Z,10.25
2023-05-20T01:11:27.366Z,10.10
2023-05-20T01:13:36.938Z,10.73
2023-05-20T01:15:43.133Z,11.13
2023-05-20T01:17:48.013Z,10.20
2023-05-20T01:19:51.474Z,11.90
2023-05-20T01:21:55.111Z,11.05
2023-05-20T01:23:59.080Z,11.10
2023-05-20T01:26:01.636Z,10.73
2023-05-20T01:28:05.042Z,11.75
2023-05-20T01:30:09.043Z,10.77
2023-05-20T01:32:16.296Z,10.80
2023-05-20T01:34:19.456Z,11.65
2023-05-20T01:36:22.637Z,10.20
2023-05-20T01:38:26.290Z,10.07
2023-05-20T01:40:32.551Z,10.85
2023-05-20T01:42:36.386Z,10.25
2023-05-20T01:44:39.323Z,9.95
2023-05-20T01:46:41.969Z,10.02
2023-05-20T01:48:44.653Z,10.18
2023-05-20T01:50:47.266Z,9.85
2023-05-20T01:52:50.026Z,9.73
2023-05-20T01:54:52.609Z,10.13
2023-05-20T01:56:57.029Z,9.63
2023-05-20T01:58:59.692Z,9.93
2023-05-20T02:01:02.688Z,10.32
2023-05-20T02:03:05.442Z,9.60
2023-05-20T02:05:08.729Z,10.25
2023-05-20T02:07:11.278Z,9.52
2023-05-20T02:09:14.129Z,8.93
2023-05-20T02:11:16.720Z,10.60
2023-05-20T02:13:20.774Z,9.50
2023-05-20T02:15:23.421Z,10.10
2023-05-20T02:17:27.385Z,9.73
2023-05-20T02:19:30.154Z,9.68
2023-05-20T02:21:32.835Z,10.10
2023-05-20T02:23:35.817Z,9.63
2023-05-20T02:25:38.407Z,9.80
2023-05-20T02:27:41.060Z,9.20
2023-05-20T02:29:45.632Z,9.57
2023-05-20T02:31:48.966Z,8.75
2023-05-20T02:33:51.584Z,8.98
2023-05-20T02:35:54.177Z,9.05
2023-05-20T02:37:56.828Z,9.27
2023-05-20T02:39:59.455Z,9.40
2023-05-20T02:42:02.052Z,8.60
2023-05-20T02:44:04.665Z,9.07
2023-05-20T02:46:08.648Z,9.32
2023-05-20T02:48:11.271Z,9.07
2023-05-20T02:50:13.898Z,8.55
2023-05-20T02:52:16.815Z,8.80
2023-05-20T02:54:19.406Z,9.65
2023-05-20T02:56:22.029Z,8.70
2023-05-20T02:58:26.406Z,8.85
2023-05-20T03:00:31.273Z,9.02
2023-05-20T03:02:35.366Z,9.13
2023-05-20T03:04:39.087Z,8.90
2023-05-20T03:06:44.321Z,9.32
2023-05-20T03:08:46.967Z,8.68
2023-05-20T03:10:50.007Z,9.10
2023-05-20T03:12:52.603Z,8.35
2023-05-20T03:14:55.432Z,9.00
2023-05-20T03:16:58.071Z,9.07
2023-05-20T03:19:02.251Z,8.70
2023-05-20T03:21:05.190Z,9.80
2023-05-20T03:23:08.324Z,8.88
2023-05-20T03:25:11.189Z,9.05
2023-05-20T03:27:13.786Z,8.43
2023-05-20T03:29:19.024Z,8.45
2023-05-20T03:31:21.676Z,8.90
2023-05-20T03:33:26.274Z,9.18
2023-05-20T03:35:30.452Z,9.40
2023-05-20T03:37:33.230Z,10.05
2023-05-20T03:39:35.835Z,8.93
2023-05-20T03:41:38.908Z,8.98
2023-05-20T03:43:41.540Z,8.45
2023-05-20T03:45:44.223Z,8.73
2023-05-20T03:47:46.844Z,9.82
2023-05-20T03:49:49.491Z,9.48
2023-05-20T03:51:53.386Z,9.55
2023-05-20T03:53:55.976Z,9.00
2023-05-20T03:55:58.606Z,9.27
2023-05-20T03:58:01.793Z,9.00
2023-05-20T04:00:09.938Z,9.20
2023-05-20T04:02:12.660Z,9.32
2023-05-20T04:04:15.673Z,8.98
2023-05-20T04:06:18.441Z,9.75
2023-05-20T04:08:25.858Z,8.13
2023-05-20T04:10:28.513Z,9.50
2023-05-20T04:12:32.386Z,9.60
2023-05-20T04:14:35.816Z,9.30
2023-05-20T04:16:38.877Z,9.80
2023-05-20T04:18:41.567Z,9.50
2023-05-20T04:20:44.721Z,9.43
2023-05-20T04:22:48.206Z,9.55
2023-05-20T04:24:52.244Z,9.93
2023-05-20T04:26:54.899Z,8.27
2023-05-20T04:28:59.004Z,8.98
2023-05-20T04:31:02.766Z,8.60
2023-05-20T04:33:06.270Z,8.32
2023-05-20T04:35:12.068Z,8.70
2023-05-20T04:37:15.503Z,8.75
2023-05-20T04:39:19.007Z,9.13
2023-05-20T04:41:23.978Z,7.43
2023-05-20T04:43:29.839Z,8.10
2023-05-20T04:45:33.851Z,7.47
2023-05-20T04:47:38.826Z,7.10
2023-05-20T04:49:42.249Z,7.05
2023-05-20T04:51:44.997Z,7.40
2023-05-20T04:53:47.571Z,7.00
2023-05-20T04:55:53.858Z,6.53
2023-05-20T04:57:57.807Z,6.97
2023-05-20T05:00:00.552Z,7.05
2023-05-20T05:02:03.133Z,7.03
2023-05-20T05:04:06.178Z,6.80
2023-05-20T05:06:08.788Z,6.82
2023-05-20T05:08:12.524Z,6.75
2023-05-20T05:10:15.725Z,6.70
2023-05-20T05:12:18.349Z,6.88
2023-05-20T05:14:22.317Z,6.85
2023-05-20T05:16:24.989Z,7.20
2023-05-20T05:18:27.766Z,6.53
2023-05-20T05:20:30.379Z,7.15
2023-05-20T05:22:35.414Z,6.53
2023-05-20T05:24:38.021Z,6.50
2023-05-20T05:26:40.618Z,6.63
2023-05-20T05:28:43.957Z,6.72
2023-05-20T05:30:47.912Z,6.53
2023-05-20T05:32:50.619Z,6.70
2023-05-20T05:34:53.293Z,6.63
2023-05-20T05:36:55.892Z,6.18
2023-05-20T05:38:58.478Z,6.47
2023-05-20T05:41:01.045Z,6.03
2023-05-20T05:43:03.753Z,6.32
2023-05-20T05:45:07.224Z,6.97
2023-05-20T05:47:11.556Z,7.18
2023-05-20T05:49:14.250Z,6.35
2023-05-20T05:51:16.905Z,7.00
2023-05-20T05:53:19.505Z,7.38
2023-05-20T05:55:23.764Z,6.28
2023-05-20T05:57:26.305Z,6.82
2023-05-20T05:59:28.916Z,6.88
2023-05-20T06:01:31.563Z,6.50
2023-05-20T06:03:37.329Z,7.22
2023-05-20T06:05:40.020Z,6.05
2023-05-20T06:07:42.736Z,6.80
2023-05-20T06:09:45.792Z,6.57
2023-05-20T06:11:48.365Z,6.72
2023-05-20T06:13:51.154Z,6.80
2023-05-20T06:15:54.166Z,6.40
2023-05-20T06:17:56.832Z,7.03
2023-05-20T06:20:00.870Z,6.72
2023-05-20T06:22:03.540Z,6.70
2023-05-20T06:24:06.980Z,7.35
2023-05-20T06:26:09.649Z,6.75
2023-05-20T06:28:12.701Z,6.68
2023-05-20T06:30:15.506Z,6.63
2023-05-20T06:32:18.115Z,6.72
2023-05-20T06:34:20.852Z,7.15
2023-05-20T06:36:24.793Z,6.60
2023-05-20T06:38:27.396Z,6.90
2023-05-20T06:40:30.121Z,7.03
2023-05-20T06:42:32.721Z,7.10
2023-05-20T06:44:35.314Z,6.93
2023-05-20T06:46:37.971Z,6.80
2023-05-20T06:48:40.751Z,7.22
2023-05-20T06:50:43.349Z,7.55
2023-05-20T06:52:47.277Z,7.68
2023-05-20T06:54:49.843Z,7.30
2023-05-20T06:56:52.421Z,7.60
2023-05-20T06:58:55.884Z,7.15
2023-05-20T07:00:58.444Z,7.97
2023-05-20T07:03:01.092Z,7.15
2023-05-20T07:05:03.747Z,7.45
2023-05-20T07:07:06.727Z,7.95
2023-05-20T07:09:13.081Z,7.32
2023-05-20T07:11:15.800Z,7.57
2023-05-20T07:13:19.424Z,7.72
2023-05-20T07:15:22.048Z,7.82
2023-05-20T07:17:25.083Z,7.22
2023-05-20T07:19:27.810Z,7.38
2023-05-20T07:21:30.874Z,6.72
2023-05-20T07:23:33.510Z,7.80
2023-05-20T07:25:37.455Z,6.97
2023-05-20T07:27:40.049Z,7.10
2023-05-20T07:29:42.706Z,8.40
2023-05-20T07:31:45.327Z,7.45
2023-05-20T07:33:47.927Z,7.47
2023-05-20T07:35:50.592Z,7.35
2023-05-20T07:37:53.207Z,7.88
2023-05-20T07:39:56.074Z,8.60
2023-05-20T07:42:00.099Z,8.57
2023-05-20T07:44:03.796Z,8.55
2023-05-20T07:46:06.702Z,7.75
2023-05-20T07:48:10.862Z,8.63
2023-05-20T07:50:13.562Z,9.60
2023-05-20T07:52:16.181Z,8.85
2023-05-20T07:54:18.818Z,8.63
2023-05-20T07:56:21.657Z,9.05
2023-05-20T07:58:25.642Z,8.93
2023-05-20T08:00:28.269Z,8.82
2023-05-20T08:02:30.937Z,8.50
2023-05-20T08:04:33.747Z,9.55
2023-05-20T08:06:36.853Z,8.43
2023-05-20T08:08:40.450Z,8.13
2023-05-20T08:10:43.051Z,8.02
2023-05-20T08:12:46.105Z,8.50
2023-05-20T08:14:50.049Z,7.85
2023-05-20T08:16:54.839Z,8.40
2023-05-20T08:18:57.830Z,8.77
2023-05-20T08:21:00.934Z,7.70
2023-05-20T08:23:03.542Z,8.38
2023-05-20T08:25:10.016Z,8.20
2023-05-20T08:27:12.634Z,7.43
2023-05-20T08:29:15.219Z,8.63
2023-05-20T08:31:19.253Z,9.45
2023-05-20T08:33:22.618Z,8.88
2023-05-20T08:35:25.415Z,8.95
2023-05-20T08:37:28.122Z,9.75
2023-05-20T08:39:30.711Z,8.77
2023-05-20T08:41:33.347Z,8.85
2023-05-20T08:43:36.512Z,8.20
2023-05-20T08:45:40.066Z,8.20
2023-05-20T08:47:44.736Z,8.43
2023-05-20T08:49:47.387Z,8.27
2023-05-20T08:51:50.026Z,8.40
2023-05-20T08:53:53.059Z,8.90
2023-05-20T08:56:01.007Z,8.60
2023-05-20T08:58:04.609Z,9.10
2023-05-20T09:00:13.400Z,9.20
2023-05-20T09:02:16.403Z,9.23
2023-05-20T09:04:20.403Z,8.45
2023-05-20T09:06:24.039Z,9.45
2023-05-20T09:08:27.254Z,8.32
2023-05-20T09:10:29.940Z,7.72
2023-05-20T09:12:34.219Z,7.85
2023-05-20T09:14:36.856Z,7.80
2023-05-20T09:16:41.115Z,7.30
2023-05-20T09:18:43.926Z,7.75
2023-05-20T09:20:52.867Z,7.78
2023-05-20T09:22:55.667Z,8.23
2023-05-20T09:24:58.533Z,8.27
2023-05-20T09:27:01.300Z,13.90
2023-05-20T09:29:03.881Z,10.05
2023-05-20T09:31:06.750Z,8.75
2023-05-20T09:33:09.509Z,8.57
2023-05-20T09:35:14.436Z,8.90
2023-05-20T09:37:20.283Z,9.15
2023-05-20T09:39:26.917Z,8.20
2023-05-20T09:41:35.425Z,9.00
2023-05-20T09:43:39.105Z,8.15
2023-05-20T09:45:42.775Z,8.48
2023-05-20T09:47:47.605Z,7.68
2023-05-20T09:49:52.584Z,8.38
2023-05-20T09:51:57.152Z,7.57
2023-05-20T09:54:03.610Z,7.78
2023-05-20T09:56:06.853Z,7.68
2023-05-20T09:58:13.686Z,6.78
2023-05-20T10:00:18.539Z,6.60
2023-05-20T10:02:21.673Z,6.22
2023-05-20T10:04:26.628Z,7.57
2023-05-20T10:07:11.793Z,7.45
2023-05-20T10:09:33.548Z,6.30
2023-05-20T10:11:42.154Z,7.32
2023-05-20T10:14:04.956Z,7.30
2023-05-20T10:16:18.979Z,7.50
2023-05-20T10:18:33.725Z,7.57
2023-05-20T10:20:46.609Z,7.70
2023-05-20T10:22:57.544Z,8.10
2023-05-20T10:25:06.691Z,7.60
2023-05-20T10:27:11.061Z,9.10
2023-05-20T10:29:17.474Z,8.18
2023-05-20T10:31:23.642Z,9.32
2023-05-20T10:33:27.490Z,7.35
2023-05-20T10:35:30.187Z,6.80
2023-05-20T10:37:34.444Z,6.88
2023-05-20T10:39:37.031Z,7.60
2023-05-20T10:41:41.080Z,6.72
2023-05-20T10:43:44.831Z,7.25
2023-05-20T10:45:52.426Z,7.82
2023-05-20T10:47:56.821Z,7.20
2023-05-20T10:50:01.583Z,7.43
2023-05-20T10:52:04.806Z,6.93
2023-05-20T10:54:11.510Z,7.10
2023-05-20T10:56:18.408Z,7.50
2023-05-20T10:58:23.004Z,7.18
2023-05-20T11:00:26.182Z,7.20
2023-05-20T11:02:29.670Z,6.40
2023-05-20T11:04:33.489Z,6.55
2023-05-20T11:06:36.067Z,6.93
2023-05-20T11:08:38.712Z,6.60
2023-05-20T11:10:43.360Z,6.75
2023-05-20T11:12:46.158Z,6.40
2023-05-20T11:14:51.544Z,7.10
2023-05-20T11:16:57.100Z,6.97
2023-05-20T11:18:59.814Z,6.97
2023-05-20T11:21:03.442Z,6.30
2023-05-20T11:23:07.419Z,5.53
2023-05-20T11:25:10.996Z,6.18
2023-05-20T11:27:13.640Z,6.20
2023-05-20T11:29:16.498Z,11.20
2023-05-20T11:31:20.574Z,6.53
2023-05-20T11:33:27.215Z,6.75
2023-05-20T11:35:32.298Z,6.03
2023-05-20T11:37:37.261Z,6.60
2023-05-20T11:39:40.328Z,5.85
2023-05-20T11:41:44.065Z,6.78
2023-05-20T11:43:46.862Z,6.20
2023-05-20T11:45:54.622Z,6.53
2023-05-20T11:48:02.850Z,6.28
2023-05-20T11:50:06.104Z,5.75
2023-05-20T11:52:11.395Z,6.50
2023-05-20T11:54:13.995Z,6.50
2023-05-20T11:56:16.590Z,6.32
2023-05-20T11:58:20.829Z,6.53
2023-05-20T12:00:24.996Z,6.38
2023-05-20T12:02:28.236Z,6.10
2023-05-20T12:04:32.282Z,6.18
2023-05-20T12:06:35.029Z,7.00
2023-05-20T12:08:37.675Z,6.35
2023-05-20T12:10:40.273Z,6.13
2023-05-20T12:12:43.981Z,6.38
2023-05-20T12:14:46.599Z,6.35
2023-05-20T12:16:49.202Z,6.40
2023-05-20T12:18:51.861Z,6.53
2023-05-20T12:20:55.992Z,6.25
2023-05-20T12:22:59.844Z,6.78
2023-05-20T12:25:02.464Z,9.52
2023-05-20T12:27:06.395Z,9.63
2023-05-20T12:29:09.017Z,9.80
2023-05-20T12:31:11.648Z,7.10
2023-05-20T12:33:14.292Z,6.60
2023-05-20T12:35:17.067Z,6.25
2023-05-20T12:37:21.132Z,6.95
2023-05-20T12:39:23.775Z,5.63
2023-05-20T12:41:26.406Z,5.60
2023-05-20T12:43:29.235Z,6.30
2023-05-20T12:45:32.215Z,5.43
2023-05-20T12:47:35.699Z,5.40
2023-05-20T12:49:38.314Z,5.53
2023-05-20T12:51:41.249Z,5.82
2023-05-20T12:53:45.471Z,5.78
2023-05-20T12:55:48.109Z,5.07
2023-05-20T12:57:51.098Z,5.35
2023-05-20T12:59:53.708Z,5.43
2023-05-20T13:01:56.719Z,5.28
2023-05-20T13:03:59.393Z,5.25
2023-05-20T13:06:02.068Z,5.85
2023-05-20T13:08:04.839Z,11.75
2023-05-20T13:10:10.462Z,21.58
2023-05-20T13:12:13.202Z,13.73
2023-05-20T13:14:17.449Z,13.68
2023-05-20T13:16:20.316Z,20.75
2023-05-20T13:18:22.940Z,16.80
2023-05-20T13:20:25.805Z,16.85
2023-05-20T13:22:28.448Z,30.15
2023-05-20T13:24:31.167Z,8.40
2023-05-20T13:26:35.109Z,11.23
2023-05-20T13:28:37.745Z,9.32
2023-05-20T13:30:40.402Z,8.32
2023-05-20T13:32:43.092Z,8.82
2023-05-20T13:34:45.896Z,8.23
2023-05-20T13:36:48.799Z,9.68
2023-05-20T13:38:51.491Z,13.27
2023-05-20T13:40:54.085Z,12.00
2023-05-20T13:42:58.093Z,17.58
2023-05-20T13:45:00.814Z,25.20
2023-05-20T13:47:03.466Z,22.92
2023-05-20T13:49:06.408Z,24.70
2023-05-20T13:51:09.111Z,34.97
2023-05-20T13:53:13.722Z,43.35
2023-05-20T13:55:16.769Z,33.63
2023-05-20T13:57:19.654Z,16.58
2023-05-20T13:59:23.598Z,30.98
2023-05-20T14:01:26.201Z,12.82
2023-05-20T14:03:28.856Z,21.30
2023-05-20T14:05:32.490Z,19.10
2023-05-20T14:07:35.093Z,18.52
2023-05-20T14:09:37.992Z,19.63
2023-05-20T14:11:40.706Z,14.05
2023-05-20T14:13:44.439Z,12.27
2023-05-20T14:15:49.176Z,14.55
2023-05-20T14:17:51.828Z,11.13
2023-05-20T14:19:54.445Z,11.90
2023-05-20T14:21:58.853Z,11.80
2023-05-20T14:24:01.964Z,11.00
2023-05-20T14:26:04.638Z,9.15
2023-05-20T14:28:07.437Z,9.18
2023-05-20T14:30:11.217Z,11.23
2023-05-20T14:32:15.250Z,11.15
2023-05-20T14:34:17.949Z,17.45
2023-05-20T14:36:20.611Z,10.82
2023-05-20T14:38:23.488Z,18.05
2023-05-20T14:40:26.112Z,36.78
2023-05-20T14:42:28.748Z,106.07
2023-05-20T14:44:31.542Z,64.25
2023-05-20T14:46:34.389Z,20.40
2023-05-20T14:48:38.393Z,33.08
2023-05-20T14:50:40.959Z,72.30
2023-05-20T14:52:43.649Z,34.60
